Time;durP1;ratioP1;P1;durP2;ratioP2;P2;SDS_P1;SDS_P2;PMS_P1;PMS_P2;Temp;Humidity;BMP_temperature;BMP_pressure;BME280_temperature;BME280_humidity;BME280_pressure;Samples;Min_cycle;Max_cycle;Signal;HPM_P1;HPM_P2
2022/04/16 00:00:59;;;;;;;;;18.50;16.00;;;;;19.53;44.83;102088.31;2105486;28;47216;-61
2022/04/16 00:02:01;;;;;;;;;19.75;16.25;;;;;19.53;45.31;102092.81;2096790;28;47170;-61
2022/04/16 00:03:01;;;;;;;;;22.80;19.00;;;;;19.52;44.96;102091.06;2104909;27;47757;-60
2022/04/16 00:04:02;;;;;;;;;16.00;15.75;;;;;19.51;45.03;102094.69;2105278;28;47299;-60
2022/04/16 00:05:02;;;;;;;;;17.50;17.50;;;;;19.49;45.38;102089.38;2104684;28;46965;-62
2022/04/16 00:06:03;;;;;;;;;21.75;19.25;;;;;19.48;45.39;102092.13;2113898;27;47616;-61
2022/04/16 00:07:03;;;;;;;;;19.00;18.75;;;;;19.47;45.06;102093.06;2092707;28;47282;-60
2022/04/16 00:08:06;;;;;;;;;22.50;20.50;;;;;19.46;45.33;102085.94;2096054;28;47478;-61
2022/04/16 00:09:07;;;;;;;;;19.60;19.40;;;;;19.44;45.32;102096.75;2104183;28;48179;-60
2022/04/16 00:10:08;;;;;;;;;16.50;16.50;;;;;19.41;45.32;102081.56;2101133;28;47551;-61
2022/04/16 00:11:09;;;;;;;;;17.60;17.60;;;;;19.39;45.15;102091.53;2105843;27;47503;-61
2022/04/16 00:12:09;;;;;;;;;21.00;21.00;;;;;19.38;45.27;102080.81;2099660;27;45976;-61
2022/04/16 00:13:11;;;;;;;;;20.75;20.25;;;;;19.37;45.68;102089.81;2099527;28;47850;-60
2022/04/16 00:14:12;;;;;;;;;18.40;18.00;;;;;19.34;45.12;102093.50;2110613;27;47769;-61
2022/04/16 00:15:12;;;;;;;;;14.40;14.40;;;;;19.32;45.53;102087.31;2108175;27;47804;-62
2022/04/16 00:16:16;;;;;;;;;17.25;17.25;;;;;19.29;45.52;102099.97;2112798;27;46112;-60
2022/04/16 00:17:17;;;;;;;;;18.80;18.80;;;;;19.28;45.62;102088.34;2112116;27;48088;-60
2022/04/16 00:18:18;;;;;;;;;20.25;18.50;;;;;19.27;45.44;102088.41;2110960;27;47687;-59
2022/04/16 00:19:19;;;;;;;;;17.40;17.40;;;;;19.26;45.70;102095.59;2114072;27;47970;-60
2022/04/16 00:20:19;;;;;;;;;22.50;21.25;;;;;19.26;45.81;102089.34;2101690;28;47994;-60
2022/04/16 00:21:22;;;;;;;;;18.25;17.50;;;;;19.24;45.93;102097.47;2101926;28;47323;-60
2022/04/16 00:22:23;;;;;;;;;19.80;19.60;;;;;19.22;45.80;102091.25;2114113;27;47741;-60
2022/04/16 00:23:25;;;;;;;;;18.00;18.00;;;;;19.22;45.57;102087.69;2110622;27;47881;-61
2022/04/16 00:24:28;;;;;;;;;17.60;17.60;;;;;19.20;45.80;102085.06;2112051;27;48166;-61
2022/04/16 00:25:32;;;;;;;;;19.00;18.80;;;;;19.21;46.10;102089.50;2113498;27;47542;-61
2022/04/16 00:26:38;;;;;;;;;19.40;18.40;;;;;19.20;45.77;102093.13;2111790;27;47520;-60
2022/04/16 00:27:39;;;;;;;;;18.00;18.00;;;;;19.19;45.74;102088.69;2105324;28;48001;-61
2022/04/16 00:28:40;;;;;;;;;20.00;16.75;;;;;19.17;46.04;102084.28;2095161;28;47653;-60
2022/04/16 00:29:40;;;;;;;;;16.75;16.75;;;;;19.16;46.17;102080.69;2092830;28;47547;-59
2022/04/16 00:30:41;;;;;;;;;18.50;17.50;;;;;19.15;45.87;102088.84;2113328;27;48217;-60
2022/04/16 00:31:45;;;;;;;;;18.50;18.00;;;;;19.15;45.64;102078.94;2111569;27;47953;-61
2022/04/16 00:32:45;;;;;;;;;18.00;16.00;;;;;19.14;46.23;102081.69;2111297;27;47830;-61
2022/04/16 00:33:46;;;;;;;;;20.00;18.50;;;;;19.12;46.03;102084.44;2114126;27;47500;-61
2022/04/16 00:34:47;;;;;;;;;17.50;17.50;;;;;19.11;46.25;102085.38;2113827;27;47670;-61
2022/04/16 00:35:47;;;;;;;;;17.25;17.25;;;;;19.10;46.21;102078.25;2111632;27;47962;-60
2022/04/16 00:36:48;;;;;;;;;18.50;18.50;;;;;19.08;45.90;102081.00;2113793;27;47720;-61
2022/04/16 00:37:48;;;;;;;;;16.00;16.00;;;;;19.08;45.92;102080.13;2111128;27;47805;-61
2022/04/16 00:38:49;;;;;;;;;17.00;16.50;;;;;19.07;46.11;102087.31;2113193;27;47812;-61
2022/04/16 00:39:49;;;;;;;;;19.75;18.75;;;;;19.06;45.93;102084.69;2112522;27;47336;-60
2022/04/16 00:40:49;;;;;;;;;15.00;15.00;;;;;19.06;46.19;102073.91;2112098;27;47480;-60
2022/04/16 00:41:50;;;;;;;;;16.75;15.75;;;;;19.06;46.37;102082.88;2105386;28;48126;-59
2022/04/16 00:42:51;;;;;;;;;16.50;16.25;;;;;19.05;46.50;102074.81;2106771;27;47944;-59
2022/04/16 00:43:52;;;;;;;;;21.00;18.80;;;;;19.04;46.29;102076.63;2105210;27;47566;-60
2022/04/16 00:44:52;;;;;;;;;20.00;19.80;;;;;19.04;46.36;102076.63;2105135;28;47988;-59
2022/04/16 00:45:54;;;;;;;;;16.25;16.25;;;;;19.04;45.99;102075.75;2107710;27;46932;-59
2022/04/16 00:46:54;;;;;;;;;18.20;17.80;;;;;19.03;46.46;102077.56;2105108;28;47540;-59
2022/04/16 00:47:56;;;;;;;;;18.00;17.25;;;;;19.04;46.30;102078.44;2105550;27;48154;-60
2022/04/16 00:48:56;;;;;;;;;18.20;16.80;;;;;19.04;46.52;102073.06;2105694;27;47630;-59
2022/04/16 00:49:56;;;;;;;;;17.25;17.25;;;;;19.04;46.22;102083.81;2103497;27;47720;-61
2022/04/16 00:50:57;;;;;;;;;19.50;19.00;;;;;19.02;46.15;102080.31;2104947;28;47594;-61
2022/04/16 00:51:58;;;;;;;;;19.00;19.00;;;;;18.99;46.17;102075.94;2105275;28;47681;-59
2022/04/16 00:52:58;;;;;;;;;18.00;18.00;;;;;18.97;46.41;102075.13;2108712;27;47521;-60
2022/04/16 00:54:00;;;;;;;;;18.00;18.00;;;;;18.97;46.28;102082.31;2105272;27;47682;-60
2022/04/16 00:55:00;;;;;;;;;16.60;15.00;;;;;18.95;46.37;102082.34;2110764;27;47463;-60
2022/04/16 00:56:04;;;;;;;;;18.50;18.50;;;;;18.95;46.70;102082.34;2110532;27;47741;-60
2022/04/16 00:57:05;;;;;;;;;18.80;17.40;;;;;18.93;46.73;102078.84;2110758;27;47699;-61
2022/04/16 00:58:05;;;;;;;;;16.40;15.80;;;;;18.93;46.47;102072.56;2086299;28;47512;-61
2022/04/16 00:59:06;;;;;;;;;19.25;17.00;;;;;18.92;46.40;102070.81;2083701;28;47605;-60
2022/04/16 01:00:09;;;;;;;;;17.00;17.00;;;;;18.91;46.49;102069.03;2113154;27;47550;-60
2022/04/16 01:01:09;;;;;;;;;18.20;15.20;;;;;18.91;46.69;102072.63;2111429;27;47633;-60
2022/04/16 01:02:10;;;;;;;;;19.00;17.00;;;;;18.91;46.88;102066.34;2110101;27;48086;-60
2022/04/16 01:03:10;;;;;;;;;19.25;18.00;;;;;18.91;46.70;102069.94;2104734;28;47441;-60
2022/04/16 01:04:11;;;;;;;;;17.75;17.75;;;;;18.90;46.64;102068.16;2101267;28;48013;-60
2022/04/16 01:05:12;;;;;;;;;12.50;12.50;;;;;18.91;46.92;102072.63;2110662;27;47079;-60
2022/04/16 01:06:15;;;;;;;;;18.00;16.60;;;;;18.90;46.88;102067.28;2113555;27;48235;-60
2022/04/16 01:07:22;;;;;;;;;18.60;18.60;;;;;18.89;46.73;102069.09;2109782;27;47325;-60
2022/04/16 01:08:23;;;;;;;;;16.20;16.20;;;;;18.89;46.70;102068.22;2110749;27;47054;-60
2022/04/16 01:09:23;;;;;;;;;17.75;17.75;;;;;18.87;46.86;102067.41;2103869;27;47326;-61
2022/04/16 01:10:26;;;;;;;;;17.00;16.50;;;;;18.87;46.91;102070.09;2101259;28;47418;-60
2022/04/16 01:11:27;;;;;;;;;18.20;16.60;;;;;18.86;47.06;102062.97;2111929;27;47634;-60
2022/04/16 01:12:27;;;;;;;;;16.75;13.75;;;;;18.84;47.20;102065.72;2080584;28;45702;-60
2022/04/16 01:13:28;;;;;;;;;18.00;17.25;;;;;18.84;46.91;102062.16;2080138;28;47487;-59
2022/04/16 01:14:29;;;;;;;;;16.75;16.75;;;;;18.84;46.91;102065.72;2108278;27;47736;-61
2022/04/16 01:15:30;;;;;;;;;19.00;17.75;;;;;18.83;46.68;102063.06;2109782;27;47528;-61
2022/04/16 01:16:33;;;;;;;;;19.00;19.00;;;;;18.82;46.70;102064.88;2110284;27;47835;-60
2022/04/16 01:17:34;;;;;;;;;17.80;17.80;;;;;18.83;47.01;102063.06;2104589;28;47983;-60
2022/04/16 01:18:35;;;;;;;;;18.50;17.00;;;;;18.81;46.89;102065.81;2100954;28;47681;-62
2022/04/16 01:19:41;;;;;;;;;22.20;20.00;;;;;18.81;47.04;102066.69;2113504;27;48306;-60
2022/04/16 01:20:44;;;;;;;;;18.60;18.00;;;;;18.80;46.82;102064.94;2113446;27;47884;-60
2022/04/16 01:21:46;;;;;;;;;18.00;16.40;;;;;18.79;46.93;102060.47;2109737;27;47591;-61
2022/04/16 01:22:47;;;;;;;;;17.40;16.80;;;;;18.78;47.05;102060.53;2111942;27;47658;-60
2022/04/16 01:23:48;;;;;;;;;15.20;14.60;;;;;18.77;47.32;102058.78;2112635;27;47917;-61
2022/04/16 01:24:49;;;;;;;;;19.75;19.00;;;;;18.75;46.98;102060.63;2110085;27;47734;-60
2022/04/16 01:25:50;;;;;;;;;18.00;17.25;;;;;18.75;46.79;102063.31;2113017;27;47578;-60
2022/04/16 01:26:51;;;;;;;;;20.40;15.60;;;;;18.73;47.05;102068.75;2105633;27;47471;-60
2022/04/16 01:27:52;;;;;;;;;19.00;19.00;;;;;18.73;46.83;102063.38;2105687;27;48250;-60
2022/04/16 01:28:52;;;;;;;;;18.20;17.60;;;;;18.73;47.21;102062.50;2113611;27;47303;-60
2022/04/16 01:29:57;;;;;;;;;18.25;17.75;;;;;18.72;47.14;102067.00;2110007;27;47449;-59
2022/04/16 01:30:58;;;;;;;;;21.80;17.60;;;;;18.70;46.85;102068.00;2110575;27;47617;-60
2022/04/16 01:31:59;;;;;;;;;19.75;19.00;;;;;18.69;47.18;102063.56;2113488;27;48055;-61
2022/04/16 01:33:00;;;;;;;;;20.60;18.20;;;;;18.67;46.85;102063.56;2110451;27;47230;-60
2022/04/16 01:34:01;;;;;;;;;17.20;16.60;;;;;18.66;47.33;102064.50;2103322;28;47370;-59
2022/04/16 01:35:01;;;;;;;;;20.25;20.25;;;;;18.66;47.25;102061.81;2102679;28;47459;-60
2022/04/16 01:36:02;;;;;;;;;18.75;16.50;;;;;18.64;47.32;102061.00;2101174;28;46878;-60
2022/04/16 01:37:02;;;;;;;;;16.00;15.75;;;;;18.64;46.97;102062.81;2095946;28;47250;-62
2022/04/16 01:38:09;;;;;;;;;15.25;15.25;;;;;18.63;47.10;102061.91;2092841;28;47299;-61
2022/04/16 01:39:09;;;;;;;;;19.60;19.60;;;;;18.63;47.30;102064.59;2105110;27;47625;-60
2022/04/16 01:40:12;;;;;;;;;19.00;18.25;;;;;18.62;47.38;102067.34;2113539;27;47784;-60
2022/04/16 01:41:13;;;;;;;;;18.60;18.60;;;;;18.59;47.37;102068.31;2110155;27;47732;-61
2022/04/16 01:42:13;;;;;;;;;20.25;19.00;;;;;18.60;47.43;102071.88;2112473;27;47679;-62
2022/04/16 01:43:14;;;;;;;;;17.00;17.00;;;;;18.59;47.06;102075.50;2113443;27;47452;-61
2022/04/16 01:44:14;;;;;;;;;18.50;18.50;;;;;18.58;47.28;102079.13;2113652;27;47980;-60
2022/04/16 01:45:18;;;;;;;;;19.25;19.25;;;;;18.56;47.49;102078.31;2113026;27;47565;-61
2022/04/16 01:46:18;;;;;;;;;17.40;16.20;;;;;18.54;47.21;102072.94;2111420;27;47948;-60
2022/04/16 01:47:18;;;;;;;;;24.75;20.75;;;;;18.54;47.50;102067.56;2110279;27;47104;-60
2022/04/16 01:48:21;;;;;;;;;18.00;16.25;;;;;18.53;47.45;102069.38;2114048;27;47621;-61
2022/04/16 01:49:21;;;;;;;;;19.60;18.20;;;;;18.53;47.27;102069.38;2113022;27;47553;-61
2022/04/16 01:50:22;;;;;;;;;19.00;19.00;;;;;18.51;47.46;102070.38;2105272;27;48053;-61
2022/04/16 01:51:23;;;;;;;;;19.00;18.25;;;;;18.50;47.42;102069.50;2113532;27;47385;-61
2022/04/16 01:52:23;;;;;;;;;19.60;19.60;;;;;18.51;47.60;102070.38;2109222;27;47754;-62
2022/04/16 01:53:24;;;;;;;;;18.50;18.50;;;;;18.50;47.68;102072.19;2102826;28;48338;-61
2022/04/16 01:54:24;;;;;;;;;20.25;19.25;;;;;18.50;47.31;102065.94;2096633;28;47424;-62
2022/04/16 01:55:25;;;;;;;;;16.25;16.00;;;;;18.49;47.53;102075.81;2104725;28;47695;-62
2022/04/16 01:56:25;;;;;;;;;23.50;19.00;;;;;18.48;47.51;102074.06;2100048;28;47575;-62
2022/04/16 01:57:25;;;;;;;;;19.25;19.00;;;;;18.47;47.45;102071.41;2097609;28;47439;-61
2022/04/16 01:58:26;;;;;;;;;21.25;17.50;;;;;18.45;47.40;102071.47;2112744;27;49260;-61
2022/04/16 01:59:28;;;;;;;;;20.00;16.75;;;;;18.44;47.59;102072.41;2108142;27;47629;-61
2022/04/16 02:00:29;;;;;;;;;20.80;18.60;;;;;18.44;47.70;102076.91;2109416;27;47748;-61
2022/04/16 02:01:30;;;;;;;;;16.75;16.75;;;;;18.43;47.62;102076.03;2102633;28;47436;-59
2022/04/16 02:02:30;;;;;;;;;19.00;18.25;;;;;18.43;47.76;102075.16;2098354;28;47397;-60
2022/04/16 02:03:34;;;;;;;;;18.00;17.25;;;;;18.41;47.65;102085.91;2113116;27;47683;-60
2022/04/16 02:04:35;;;;;;;;;21.60;19.60;;;;;18.40;47.72;102078.78;2113401;27;47500;-59
2022/04/16 02:05:35;;;;;;;;;18.50;16.00;;;;;18.39;47.51;102079.72;2107277;27;47366;-60
2022/04/16 02:06:36;;;;;;;;;19.25;16.50;;;;;18.39;47.50;102077.03;2111639;27;47864;-60
2022/04/16 02:07:38;;;;;;;;;19.00;18.25;;;;;18.37;47.76;102080.69;2090763;28;47754;-61
2022/04/16 02:08:38;;;;;;;;;18.80;18.80;;;;;18.36;47.85;102073.56;2090351;28;47665;-60
2022/04/16 02:09:40;;;;;;;;;13.50;12.75;;;;;18.36;47.93;102077.13;2103709;28;47682;-60
2022/04/16 02:10:40;;;;;;;;;18.60;18.40;;;;;18.34;47.79;102079.00;2098852;27;47522;-60
2022/04/16 02:11:41;;;;;;;;;18.75;18.25;;;;;18.32;47.70;102074.63;2109919;27;47718;-61
2022/04/16 02:12:41;;;;;;;;;20.00;19.50;;;;;18.31;47.88;102075.53;2110681;27;47446;-60
2022/04/16 02:13:42;;;;;;;;;21.00;20.00;;;;;18.29;47.98;102072.00;2107697;27;47086;-61
2022/04/16 02:14:42;;;;;;;;;20.00;19.00;;;;;18.27;47.89;102069.38;2105867;27;47430;-60
2022/04/16 02:15:43;;;;;;;;;19.50;18.00;;;;;18.28;47.88;102068.44;2109419;27;47761;-60
2022/04/16 02:16:43;;;;;;;;;23.50;20.25;;;;;18.27;48.01;102063.09;2107951;27;47666;-60
2022/04/16 02:17:43;;;;;;;;;24.00;22.00;;;;;18.25;47.95;102068.53;2112460;27;48117;-60
2022/04/16 02:18:44;;;;;;;;;21.50;19.75;;;;;18.24;47.97;102069.47;2107404;27;47569;-61
2022/04/16 02:19:44;;;;;;;;;21.50;20.00;;;;;18.21;47.98;102069.56;2109832;27;47502;-61
2022/04/16 02:20:45;;;;;;;;;22.50;20.25;;;;;18.19;48.00;102068.75;2110773;27;47673;-61
2022/04/16 02:21:45;;;;;;;;;19.75;17.75;;;;;18.18;47.84;102069.69;2107110;27;47526;-61
2022/04/16 02:22:47;;;;;;;;;19.50;19.25;;;;;18.17;48.02;102068.81;2113230;27;47913;-61
2022/04/16 02:23:50;;;;;;;;;19.60;19.60;;;;;18.15;48.27;102064.38;2113036;27;47792;-61
2022/04/16 02:24:50;;;;;;;;;20.80;20.20;;;;;18.15;47.98;102070.63;2097585;28;47699;-61
2022/04/16 02:25:53;;;;;;;;;21.50;20.50;;;;;18.13;48.11;102056.38;2103015;28;48201;-60
2022/04/16 02:26:55;;;;;;;;;18.20;18.20;;;;;18.13;47.97;102072.50;2108624;27;48041;-61
2022/04/16 02:27:56;;;;;;;;;18.00;17.40;;;;;18.11;48.19;102070.78;2108002;27;48014;-61
2022/04/16 02:28:56;;;;;;;;;22.75;22.25;;;;;18.11;48.05;102065.41;2112299;27;47386;-61
2022/04/16 02:29:57;;;;;;;;;19.75;17.50;;;;;18.10;48.05;102066.34;2107514;27;47403;-61
2022/04/16 02:30:57;;;;;;;;;25.25;21.00;;;;;18.09;48.42;102069.97;2110218;27;47307;-60
2022/04/16 02:31:58;;;;;;;;;25.00;23.00;;;;;18.09;48.45;102072.66;2110427;27;47802;-61
2022/04/16 02:32:58;;;;;;;;;19.50;19.50;;;;;18.08;48.36;102069.09;2106847;27;48067;-61
2022/04/16 02:33:59;;;;;;;;;21.25;21.25;;;;;18.07;48.50;102070.00;2111812;27;47761;-60
2022/04/16 02:34:59;;;;;;;;;18.75;18.75;;;;;18.08;48.48;102070.91;2109025;27;45848;-60
2022/04/16 02:36:00;;;;;;;;;21.00;18.50;;;;;18.08;48.24;102071.78;2108337;27;47289;-60
2022/04/16 02:37:00;;;;;;;;;21.25;21.25;;;;;18.09;48.21;102072.66;2112020;27;47577;-61
2022/04/16 02:38:00;;;;;;;;;18.50;18.50;;;;;18.08;48.39;102074.47;2107015;27;47359;-61
2022/04/16 02:39:01;;;;;;;;;19.00;16.25;;;;;18.09;48.28;102073.53;2109741;27;47681;-61
2022/04/16 02:40:05;;;;;;;;;18.75;18.50;;;;;18.08;48.23;102069.09;2110824;27;47955;-60
2022/04/16 02:41:06;;;;;;;;;22.20;22.20;;;;;18.08;48.32;102073.56;2098278;27;48050;-61
2022/04/16 02:42:07;;;;;;;;;17.80;16.20;;;;;18.08;48.68;102070.91;2103675;27;47500;-61
2022/04/16 02:43:07;;;;;;;;;20.00;19.00;;;;;18.07;48.44;102075.38;2100494;27;46557;-60
2022/04/16 02:47:05;;;;;;;;;21.25;19.50;;;;;18.07;48.21;102072.69;2103421;28;47640;-60
2022/04/16 02:47:05;;;;;;;;;19.00;18.80;;;;;18.06;48.39;102075.44;2112784;27;47505;-60
2022/04/16 02:48:07;;;;;;;;;21.80;21.40;;;;;18.06;48.45;102078.13;2109923;27;48158;-61
2022/04/16 02:49:08;;;;;;;;;20.60;20.00;;;;;18.04;48.61;102074.56;2101290;28;48235;-60
2022/04/16 02:50:09;;;;;;;;;20.40;20.40;;;;;18.01;48.41;102072.88;2097973;28;47436;-60
2022/04/16 02:51:09;;;;;;;;;20.50;19.00;;;;;17.99;48.30;102085.47;2104373;27;47975;-60
2022/04/16 02:52:10;;;;;;;;;20.25;19.25;;;;;17.98;48.54;102080.16;2111246;27;47396;-58
2022/04/16 02:53:11;;;;;;;;;18.00;15.25;;;;;17.96;48.47;102084.69;2109463;27;47761;-60
2022/04/16 02:54:12;;;;;;;;;20.00;19.00;;;;;17.94;48.63;102079.38;2112364;27;47588;-60
2022/04/16 02:55:16;;;;;;;;;24.50;20.50;;;;;17.94;48.41;102088.31;2104800;27;47927;-60
2022/04/16 02:56:17;;;;;;;;;20.00;19.80;;;;;17.93;48.57;102086.56;2108317;27;46663;-61
2022/04/16 02:57:18;;;;;;;;;20.40;19.20;;;;;17.93;48.40;102083.00;2108645;27;47556;-60
2022/04/16 02:58:19;;;;;;;;;18.50;18.00;;;;;17.91;48.51;102077.69;2111864;27;46403;-59
2022/04/16 02:59:19;;;;;;;;;20.00;19.20;;;;;17.91;48.57;102071.38;2106965;27;48367;-60
2022/04/16 03:00:20;;;;;;;;;17.25;17.25;;;;;17.90;48.63;102075.00;2110177;27;47704;-59
2022/04/16 03:01:21;;;;;;;;;15.80;14.20;;;;;17.89;48.49;102076.81;2110436;27;47930;-60
2022/04/16 03:02:21;;;;;;;;;17.25;16.25;;;;;17.89;48.74;102076.81;2107400;27;47316;-60
2022/04/16 03:03:22;;;;;;;;;22.00;20.75;;;;;17.88;48.73;102069.69;2111431;27;46395;-61
2022/04/16 03:04:22;;;;;;;;;21.25;19.50;;;;;17.85;48.62;102075.16;2108703;27;47862;-61
2022/04/16 03:05:23;;;;;;;;;20.00;20.00;;;;;17.83;48.70;102071.66;2108104;27;47530;-61
2022/04/16 03:06:23;;;;;;;;;15.75;15.00;;;;;17.82;48.78;102063.63;2112398;27;47102;-58
2022/04/16 03:07:24;;;;;;;;;18.25;18.00;;;;;17.82;48.67;102063.63;2107306;27;47442;-61
2022/04/16 03:08:25;;;;;;;;;18.75;18.50;;;;;17.82;48.66;102069.00;2109779;27;48261;-60
2022/04/16 03:09:25;;;;;;;;;20.00;18.50;;;;;17.81;48.77;102069.94;2110906;27;47597;-60
2022/04/16 03:10:26;;;;;;;;;22.25;20.75;;;;;17.80;48.71;102065.50;2106997;27;47909;-60
2022/04/16 03:11:26;;;;;;;;;21.75;21.75;;;;;17.80;48.64;102068.19;2102396;28;47201;-61
2022/04/16 03:12:27;;;;;;;;;24.75;21.50;;;;;17.80;48.93;102069.06;2099517;28;47891;-60
2022/04/16 03:13:27;;;;;;;;;23.75;21.75;;;;;17.79;48.56;102064.63;2108015;27;48484;-60
2022/04/16 03:18:25;;;;;;;;;19.20;17.80;;;;;17.79;48.75;102070.00;2112903;27;47875;-60
2022/04/16 03:19:25;;;;;;;;;16.50;16.50;;;;;17.79;48.85;102069.13;2111664;27;47117;-60
2022/04/16 03:20:27;;;;;;;;;19.25;15.75;;;;;17.78;48.82;102065.50;2107992;27;47832;-60
2022/04/16 03:21:28;;;;;;;;;23.20;21.80;;;;;17.78;48.98;102073.56;2107841;27;47733;-60
2022/04/16 03:22:28;;;;;;;;;22.50;22.50;;;;;17.78;48.77;102070.00;2093438;28;47601;-60
2022/04/16 03:23:29;;;;;;;;;19.00;19.00;;;;;17.77;48.73;102074.50;2088506;28;47891;-60
2022/04/16 03:24:30;;;;;;;;;20.20;19.40;;;;;17.75;49.18;102070.97;2109487;27;47268;-61
2022/04/16 03:25:32;;;;;;;;;19.75;19.75;;;;;17.73;48.96;102075.53;2109904;27;47610;-61
2022/04/16 03:26:32;;;;;;;;;21.80;19.60;;;;;17.73;49.12;102075.53;2106669;27;47616;-61
2022/04/16 03:27:33;;;;;;;;;19.25;18.25;;;;;17.72;48.84;102068.41;2110951;27;47116;-61
2022/04/16 03:28:33;;;;;;;;;20.75;20.75;;;;;17.72;49.09;102070.22;2108472;27;47578;-60
2022/04/16 03:29:34;;;;;;;;;21.75;21.75;;;;;17.71;48.87;102068.44;2107374;27;47218;-61
2022/04/16 03:30:35;;;;;;;;;21.50;21.00;;;;;17.71;49.09;102063.06;2111676;27;47703;-61
2022/04/16 03:31:36;;;;;;;;;21.75;21.50;;;;;17.71;48.74;102068.44;2104210;28;47893;-60
2022/04/16 03:32:40;;;;;;;;;21.75;20.25;;;;;17.68;48.95;102068.50;2103948;28;47313;-60
2022/04/16 03:33:40;;;;;;;;;18.40;18.00;;;;;17.68;49.10;102072.06;2110896;27;47683;-60
2022/04/16 03:34:41;;;;;;;;;28.25;26.25;;;;;17.68;49.08;102066.72;2113049;27;47672;-61
2022/04/16 03:35:41;;;;;;;;;19.75;18.75;;;;;17.66;48.84;102073.94;2103467;28;47481;-60
2022/04/16 03:36:42;;;;;;;;;22.00;22.00;;;;;17.65;48.92;102075.72;2103911;28;48265;-60
2022/04/16 03:37:42;;;;;;;;;21.75;20.75;;;;;17.64;48.94;102076.63;2106777;27;47748;-60
2022/04/16 03:38:42;;;;;;;;;21.50;19.25;;;;;17.62;49.05;102069.56;2112184;27;48701;-61
2022/04/16 03:39:44;;;;;;;;;23.00;23.00;;;;;17.62;49.19;102072.25;2107442;27;47693;-60
2022/04/16 03:40:44;;;;;;;;;20.40;18.80;;;;;17.62;49.05;102080.28;2089878;28;48088;-60
2022/04/16 03:41:44;;;;;;;;;27.25;24.75;;;;;17.61;49.00;102074.03;2093047;27;47675;-61
2022/04/16 03:42:50;;;;;;;;;26.00;24.50;;;;;17.59;48.88;102075.91;2109900;27;47519;-61
2022/04/16 03:43:51;;;;;;;;;28.20;22.60;;;;;17.60;49.42;102074.97;2112512;27;47857;-61
2022/04/16 03:44:51;;;;;;;;;24.00;23.00;;;;;17.59;49.42;102067.84;2109933;27;47519;-61
2022/04/16 03:45:52;;;;;;;;;20.50;20.50;;;;;17.60;49.02;102074.09;2112492;27;47711;-61
2022/04/16 03:46:52;;;;;;;;;25.75;24.25;;;;;17.58;48.97;102071.47;2112191;27;48289;-61
2022/04/16 03:47:54;;;;;;;;;21.25;20.50;;;;;17.56;49.03;102070.63;2108458;27;47690;-61
2022/04/16 03:48:54;;;;;;;;;22.60;20.60;;;;;17.55;49.00;102076.94;2111261;27;47639;-61
2022/04/16 03:49:55;;;;;;;;;21.50;20.50;;;;;17.55;49.15;102074.25;2107135;27;48396;-61
2022/04/16 03:50:55;;;;;;;;;25.50;23.25;;;;;17.54;49.15;102072.50;2109507;27;47481;-60
2022/04/16 03:51:56;;;;;;;;;25.00;19.25;;;;;17.52;49.11;102071.63;2111938;27;47984;-60
2022/04/16 03:52:57;;;;;;;;;23.75;23.00;;;;;17.52;49.21;102070.75;2107382;27;47936;-60
2022/04/16 03:59:59;;;;;;;;;23.25;22.00;;;;;17.51;49.26;102066.31;2108740;27;48120;-61
2022/04/16 04:00:35;;;;;;;;;26.20;26.20;;;;;17.40;49.34;102063.03;2106897;27;47954;-60
2022/04/16 04:01:35;;;;;;;;;18.50;18.50;;;;;17.36;49.31;102055.09;2112124;27;47592;-60
2022/04/16 04:02:38;;;;;;;;;20.75;20.00;;;;;17.35;49.25;102061.38;2097793;28;47863;-61
2022/04/16 04:03:38;;;;;;;;;27.00;23.40;;;;;17.34;49.49;102056.06;2100041;28;47262;-62
2022/04/16 04:04:39;;;;;;;;;24.25;24.00;;;;;17.32;49.62;102055.22;2110484;27;47297;-61
2022/04/16 04:05:40;;;;;;;;;26.25;24.75;;;;;17.31;49.56;102057.03;2112928;27;47609;-61
2022/04/16 04:06:40;;;;;;;;;24.00;21.40;;;;;17.30;49.64;102055.28;2112552;27;47568;-59
2022/04/16 04:07:41;;;;;;;;;25.25;24.00;;;;;17.29;49.23;102053.53;2113005;27;48061;-60
2022/04/16 04:08:41;;;;;;;;;22.50;22.50;;;;;17.28;49.25;102058.94;2106869;27;47681;-60
2022/04/16 04:09:43;;;;;;;;;21.75;19.25;;;;;17.27;49.59;102062.50;2111943;27;47354;-60
2022/04/16 04:10:43;;;;;;;;;23.00;23.00;;;;;17.25;49.48;102059.88;2107142;27;47396;-60
2022/04/16 04:11:44;;;;;;;;;23.50;21.00;;;;;17.25;49.48;102062.56;2108404;27;47407;-60
2022/04/16 04:12:44;;;;;;;;;21.00;19.25;;;;;17.26;49.36;102052.69;2110361;27;47705;-60
2022/04/16 04:13:45;;;;;;;;;25.00;24.50;;;;;17.26;49.49;102056.25;2106701;27;48108;-59
2022/04/16 04:14:46;;;;;;;;;23.75;21.00;;;;;17.27;49.34;102071.44;2104721;27;47477;-60
2022/04/16 04:15:46;;;;;;;;;22.40;22.00;;;;;17.27;49.78;102063.38;2109010;27;47595;-61
2022/04/16 04:16:47;;;;;;;;;26.25;24.00;;;;;17.28;49.25;102072.34;2097508;28;47186;-60
2022/04/16 04:17:48;;;;;;;;;27.25;22.75;;;;;17.28;49.62;102072.34;2102761;28;48220;-60
2022/04/16 04:18:48;;;;;;;;;28.20;26.40;;;;;17.27;49.25;102071.44;2107538;27;48014;-62
2022/04/16 04:19:49;;;;;;;;;22.00;22.00;;;;;17.28;49.44;102075.03;2108605;27;45803;-60
2022/04/16 04:20:49;;;;;;;;;26.75;22.75;;;;;17.27;49.39;102073.25;2110942;27;47527;-61
2022/04/16 04:21:50;;;;;;;;;26.50;22.25;;;;;17.26;49.28;102075.03;2106421;27;48031;-59
2022/04/16 04:22:50;;;;;;;;;24.25;24.25;;;;;17.25;49.64;102075.09;2109882;27;47498;-60
2022/04/16 04:23:51;;;;;;;;;23.75;23.25;;;;;17.24;49.44;102070.66;2109615;27;47629;-60
2022/04/16 04:24:52;;;;;;;;;27.75;25.75;;;;;17.23;49.41;102077.81;2106777;27;47404;-61
2022/04/16 04:25:52;;;;;;;;;29.20;25.00;;;;;17.23;49.52;102076.94;2111579;27;48180;-60
2022/04/16 04:27:00;;;;;;;;;28.25;26.25;;;;;17.23;49.54;102076.94;2107600;27;47925;-60
2022/04/16 04:28:00;;;;;;;;;30.00;27.40;;;;;17.24;49.73;102084.06;2107187;27;47700;-60
2022/04/16 04:29:01;;;;;;;;;25.25;21.50;;;;;17.22;49.49;102076.06;2111767;27;47498;-61
2022/04/16 04:30:02;;;;;;;;;22.00;22.00;;;;;17.24;49.34;102081.38;2106859;27;48644;-60
2022/04/16 04:31:02;;;;;;;;;25.40;23.80;;;;;17.25;49.35;102078.66;2099978;28;47664;-60
2022/04/16 04:32:05;;;;;;;;;25.75;24.00;;;;;17.25;49.77;102080.47;2100894;28;47825;-61
2022/04/16 04:33:05;;;;;;;;;24.20;22.80;;;;;17.25;49.25;102086.69;2096370;28;48022;-60
2022/04/16 04:34:06;;;;;;;;;29.75;29.00;;;;;17.24;49.42;102081.38;2100582;28;47868;-61
2022/04/16 04:35:07;;;;;;;;;23.75;23.75;;;;;17.24;49.57;102089.44;2109061;27;47660;-60
2022/04/16 04:36:08;;;;;;;;;28.60;27.80;;;;;17.22;49.38;102089.47;2106116;27;47300;-60
2022/04/16 04:37:08;;;;;;;;;27.00;24.75;;;;;17.21;49.21;102084.16;2111817;27;47361;-60
2022/04/16 04:38:09;;;;;;;;;26.00;25.25;;;;;17.22;49.39;102088.59;2098047;28;47534;-61
2022/04/16 04:39:09;;;;;;;;;26.75;26.00;;;;;17.19;49.25;102081.53;2099213;28;47622;-59
2022/04/16 04:40:10;;;;;;;;;25.00;24.75;;;;;17.18;49.74;102081.56;2110627;27;47509;-59
2022/04/16 04:41:10;;;;;;;;;20.50;20.50;;;;;17.17;49.83;102086.06;2109750;27;48066;-60
2022/04/16 04:42:11;;;;;;;;;31.00;24.25;;;;;17.17;49.61;102082.50;2112230;27;47712;-60
2022/04/16 04:43:11;;;;;;;;;26.25;25.25;;;;;17.16;49.27;102078.94;2112599;27;47361;-60
2022/04/16 04:44:13;;;;;;;;;25.50;23.25;;;;;17.16;49.59;102086.97;2109885;27;47417;-59
2022/04/16 04:45:14;;;;;;;;;29.60;24.60;;;;;17.16;49.66;102083.41;2114258;27;48217;-59
2022/04/16 04:46:15;;;;;;;;;30.20;28.00;;;;;17.15;49.58;102085.22;2110556;27;47310;-60
2022/04/16 04:47:15;;;;;;;;;28.00;27.50;;;;;17.14;49.91;102072.69;2111376;27;47785;-60
2022/04/16 04:48:16;;;;;;;;;29.00;26.25;;;;;17.12;49.59;102071.88;2113906;27;48091;-61
2022/04/16 04:49:16;;;;;;;;;29.75;28.75;;;;;17.11;49.75;102080.84;2110990;27;47710;-61